Time;durP1;ratioP1;P1;durP2;ratioP2;P2;SDS_P1;SDS_P2;PMS_P1;PMS_P2;Temp;Humidity;BMP_temperature;BMP_pressure;BME280_temperature;BME280_humidity;BME280_pressure;Samples;Min_cycle;Max_cycle;Signal;HPM_P1;HPM_P2
2022/11/09 00:01:21;;;;;;;29.98;19.25;;;10.10;99.90;;;;;;5084452;28;20256;-82
2022/11/09 00:04:10;;;;;;;27.65;19.13;;;10.10;99.90;;;;;;5063041;28;20570;-82
2022/11/09 00:07:00;;;;;;;28.02;18.70;;;10.10;99.90;;;;;;5051704;28;20220;-83
2022/11/09 00:09:49;;;;;;;28.52;19.23;;;10.10;99.90;;;;;;5069377;28;20321;-84
2022/11/09 00:12:39;;;;;;;32.72;19.67;;;10.00;99.90;;;;;;5059939;28;20753;-83
2022/11/09 00:15:28;;;;;;;30.15;20.08;;;10.10;99.90;;;;;;5072036;28;20778;-82
2022/11/09 00:18:16;;;;;;;28.75;19.25;;;10.00;99.90;;;;;;5050253;28;20216;-82
2022/11/09 00:21:08;;;;;;;34.10;19.92;;;10.00;99.90;;;;;;5060160;28;20293;-82
2022/11/09 00:23:57;;;;;;;26.60;18.75;;;10.10;99.90;;;;;;5072292;28;20230;-82
2022/11/09 00:26:45;;;;;;;28.83;19.23;;;10.00;99.90;;;;;;5065792;28;20701;-82
2022/11/09 00:29:36;;;;;;;29.25;19.67;;;10.00;99.90;;;;;;5077106;28;20220;-82
2022/11/09 00:32:24;;;;;;;28.52;18.65;;;10.00;99.90;;;;;;5067516;28;20219;-85
2022/11/09 00:35:15;;;;;;;26.27;18.73;;;9.90;99.90;;;;;;5078936;28;20365;-85
2022/11/09 00:38:04;;;;;;;29.00;19.27;;;9.90;99.90;;;;;;5065274;28;20992;-83
2022/11/09 00:40:52;;;;;;;28.33;18.65;;;9.90;99.90;;;;;;5068643;28;20228;-87
2022/11/09 00:43:41;;;;;;;28.10;19.15;;;9.90;99.90;;;;;;5066931;28;20220;-86
2022/11/09 00:46:31;;;;;;;29.88;19.17;;;9.90;99.90;;;;;;5063881;28;20223;-84
2022/11/09 00:49:23;;;;;;;32.10;19.48;;;9.80;99.90;;;;;;5062707;28;20232;-84
2022/11/09 00:52:12;;;;;;;31.25;19.52;;;9.80;99.90;;;;;;5050394;28;20224;-84
2022/11/09 00:55:01;;;;;;;32.20;20.20;;;9.70;99.90;;;;;;5063966;28;20711;-84
2022/11/09 00:57:50;;;;;;;29.80;19.92;;;9.70;99.90;;;;;;5068278;28;20227;-85
2022/11/09 01:00:39;;;;;;;32.45;20.05;;;9.70;99.90;;;;;;5085013;28;20212;-83
2022/11/09 01:03:29;;;;;;;30.92;19.85;;;9.80;99.90;;;;;;5074605;28;21419;-88
2022/11/09 01:06:20;;;;;;;32.00;20.48;;;9.70;99.90;;;;;;5081461;28;20727;-88
2022/11/09 01:09:09;;;;;;;31.02;19.85;;;9.70;99.90;;;;;;5091630;28;20220;-87
2022/11/09 01:11:57;;;;;;;27.02;18.45;;;9.80;99.90;;;;;;5069838;28;20243;-88
2022/11/09 01:14:46;;;;;;;29.63;20.30;;;9.80;99.90;;;;;;5065712;28;20212;-88
2022/11/09 01:17:34;;;;;;;35.45;20.10;;;9.70;99.90;;;;;;5080201;28;20227;-87
2022/11/09 01:20:24;;;;;;;32.83;22.05;;;9.70;99.90;;;;;;5086981;28;20239;-88
2022/11/09 01:23:14;;;;;;;37.08;21.70;;;9.70;99.90;;;;;;5069278;28;20219;-88
2022/11/09 01:26:06;;;;;;;33.38;22.13;;;9.80;99.90;;;;;;5068227;28;20732;-82
2022/11/09 01:28:55;;;;;;;34.15;21.77;;;9.80;99.90;;;;;;5052644;28;20225;-80
2022/11/09 01:31:44;;;;;;;32.33;21.65;;;9.70;99.90;;;;;;5061311;28;20296;-81
2022/11/09 01:34:33;;;;;;;34.40;21.23;;;9.70;99.90;;;;;;5062603;28;20220;-81
2022/11/09 01:37:24;;;;;;;35.10;21.10;;;9.70;99.90;;;;;;5060199;28;20715;-81
2022/11/09 01:40:13;;;;;;;31.25;20.58;;;9.70;99.90;;;;;;5061703;28;20936;-83
2022/11/09 01:43:07;;;;;;;33.53;21.00;;;9.60;99.90;;;;;;5060748;28;20232;-84
2022/11/09 01:45:59;;;;;;;35.92;21.45;;;9.80;99.90;;;;;;5066965;28;20322;-83
2022/11/09 01:48:52;;;;;;;35.00;20.98;;;9.70;99.90;;;;;;5076535;28;20224;-83
2022/11/09 01:51:45;;;;;;;34.50;21.73;;;9.70;99.90;;;;;;5078089;28;20220;-83
2022/11/09 01:54:40;;;;;;;31.65;20.48;;;9.70;99.90;;;;;;5079180;28;20255;-83
2022/11/09 01:57:33;;;;;;;34.97;22.75;;;9.80;99.90;;;;;;5082172;28;20729;-83
2022/11/09 02:00:21;;;;;;;39.30;22.20;;;9.80;99.90;;;;;;5064594;28;20308;-84
2022/11/09 02:03:15;;;;;;;35.33;21.20;;;9.70;99.90;;;;;;5063480;28;20216;-83
2022/11/09 02:06:06;;;;;;;33.55;21.67;;;9.70;99.90;;;;;;5036572;28;20834;-83
2022/11/09 02:09:00;;;;;;;38.38;21.75;;;9.60;99.90;;;;;;5011462;28;20241;-83
2022/11/09 02:11:50;;;;;;;33.42;21.35;;;9.60;99.90;;;;;;5007298;28;20683;-84
2022/11/09 02:14:40;;;;;;;33.47;21.52;;;9.60;99.90;;;;;;5034630;28;20221;-84
2022/11/09 02:17:29;;;;;;;36.28;22.58;;;9.60;99.90;;;;;;5024384;28;20220;-80
2022/11/09 02:20:20;;;;;;;31.42;20.75;;;9.60;99.90;;;;;;5030044;28;20631;-83
2022/11/09 02:23:08;;;;;;;35.20;21.95;;;9.60;99.90;;;;;;5038333;28;20700;-80
2022/11/09 02:26:00;;;;;;;34.25;20.92;;;9.70;99.90;;;;;;5040308;28;20234;-81
2022/11/09 02:28:49;;;;;;;33.78;21.30;;;9.70;99.90;;;;;;5042539;28;20232;-81
2022/11/09 02:31:43;;;;;;;35.15;21.98;;;9.70;99.90;;;;;;5022803;28;20259;-82
2022/11/09 02:34:33;;;;;;;35.88;21.10;;;9.70;99.90;;;;;;5027275;28;20902;-80
2022/11/09 02:37:29;;;;;;;37.28;23.05;;;9.60;99.90;;;;;;5023267;28;20221;-82
2022/11/09 02:40:22;;;;;;;34.38;22.38;;;9.60;99.90;;;;;;5027200;28;20632;-79
2022/11/09 02:43:13;;;;;;;33.22;22.25;;;9.60;99.90;;;;;;5041776;28;20243;-81
2022/11/09 02:46:03;;;;;;;33.67;22.83;;;9.60;99.90;;;;;;5026827;28;20294;-81
2022/11/09 02:48:53;;;;;;;35.83;22.80;;;9.60;99.90;;;;;;5018251;28;20229;-81
2022/11/09 02:51:42;;;;;;;39.83;24.10;;;9.50;99.90;;;;;;5029821;28;20221;-81
2022/11/09 02:54:32;;;;;;;34.35;22.50;;;9.50;99.90;;;;;;5026204;28;20225;-81
2022/11/09 02:57:21;;;;;;;41.88;23.27;;;9.40;99.90;;;;;;5038810;28;20256;-80
2022/11/09 03:00:11;;;;;;;37.03;23.30;;;9.40;99.90;;;;;;5022165;28;20237;-81
2022/11/09 03:03:01;;;;;;;36.55;22.20;;;9.40;99.90;;;;;;5022459;28;20229;-81
2022/11/09 03:05:50;;;;;;;38.85;23.67;;;9.40;99.90;;;;;;5024400;28;20235;-81
2022/11/09 03:08:38;;;;;;;36.08;23.15;;;9.30;99.90;;;;;;5041873;28;20727;-81
2022/11/09 03:11:28;;;;;;;39.10;24.52;;;9.30;99.90;;;;;;5046357;28;20829;-81
2022/11/09 03:14:18;;;;;;;36.50;23.23;;;9.30;99.90;;;;;;5040855;28;20310;-82
2022/11/09 03:17:12;;;;;;;35.15;22.52;;;9.30;99.90;;;;;;5043439;28;21190;-83
2022/11/09 03:20:01;;;;;;;35.10;22.98;;;9.30;99.90;;;;;;5047503;28;20236;-84
2022/11/09 03:22:51;;;;;;;39.00;24.08;;;9.30;99.90;;;;;;5051439;28;20221;-83
2022/11/09 03:25:40;;;;;;;38.88;23.25;;;9.30;99.90;;;;;;5046711;28;20223;-83
2022/11/09 03:28:31;;;;;;;35.10;22.75;;;9.30;99.90;;;;;;5045118;28;20386;-84
2022/11/09 03:31:19;;;;;;;34.28;23.05;;;9.30;99.90;;;;;;5041710;28;20228;-82
2022/11/09 03:34:10;;;;;;;40.17;23.10;;;9.30;99.90;;;;;;5053159;28;20223;-82
2022/11/09 03:36:59;;;;;;;35.80;22.63;;;9.30;99.90;;;;;;5047401;28;20224;-83
2022/11/09 03:39:48;;;;;;;38.13;23.67;;;9.40;99.90;;;;;;5041683;28;20235;-83
2022/11/09 03:42:36;;;;;;;36.55;22.88;;;9.30;99.90;;;;;;5047533;28;20235;-84
2022/11/09 03:45:27;;;;;;;39.05;22.65;;;9.20;99.90;;;;;;5042299;28;21714;-82
2022/11/09 03:48:16;;;;;;;35.38;23.33;;;9.20;99.90;;;;;;5039547;28;20323;-82
2022/11/09 03:51:05;;;;;;;36.00;23.90;;;9.20;99.90;;;;;;5046427;28;20232;-81
2022/11/09 03:53:53;;;;;;;39.15;23.52;;;9.30;99.90;;;;;;5040567;28;20224;-80
2022/11/09 03:56:42;;;;;;;35.75;23.45;;;9.30;99.90;;;;;;5063076;28;20227;-79
2022/11/09 03:59:31;;;;;;;38.40;24.35;;;9.30;99.90;;;;;;5046300;28;20259;-79
2022/11/09 04:02:21;;;;;;;36.10;23.27;;;9.30;99.90;;;;;;5062536;28;20766;-81
2022/11/09 04:05:11;;;;;;;40.45;24.75;;;9.20;99.90;;;;;;5059783;28;20220;-82
2022/11/09 04:07:59;;;;;;;39.40;23.55;;;9.20;99.90;;;;;;5039732;28;20240;-82
2022/11/09 04:10:48;;;;;;;36.75;22.83;;;9.20;99.90;;;;;;5025744;28;20281;-83
2022/11/09 04:13:39;;;;;;;39.33;23.55;;;9.30;99.90;;;;;;5023203;28;20244;-83
2022/11/09 04:16:28;;;;;;;38.30;22.73;;;9.30;99.90;;;;;;5041794;28;20225;-81
2022/11/09 04:19:18;;;;;;;38.72;23.92;;;9.30;99.90;;;;;;5034948;28;20225;-80
2022/11/09 04:22:06;;;;;;;35.85;23.10;;;9.30;99.90;;;;;;5037604;28;20217;-82
2022/11/09 04:24:55;;;;;;;36.25;23.52;;;9.20;99.90;;;;;;5041315;28;20229;-81
2022/11/09 04:27:44;;;;;;;39.17;22.83;;;9.30;99.90;;;;;;5035064;28;20309;-81
2022/11/09 04:30:34;;;;;;;38.00;23.33;;;9.30;99.90;;;;;;5023550;28;20223;-81
2022/11/09 04:33:22;;;;;;;37.17;23.52;;;9.30;99.90;;;;;;5025275;28;20227;-82
2022/11/09 04:36:12;;;;;;;40.42;23.10;;;9.30;99.90;;;;;;5044350;28;20286;-82
2022/11/09 04:39:01;;;;;;;35.40;22.67;;;9.40;99.90;;;;;;5046108;28;20217;-82
2022/11/09 04:41:50;;;;;;;38.33;23.42;;;9.40;99.90;;;;;;5026224;28;20731;-83
2022/11/09 04:44:38;;;;;;;39.42;23.48;;;9.40;99.90;;;;;;5028564;28;20221;-83
2022/11/09 04:47:27;;;;;;;37.15;23.33;;;9.40;99.90;;;;;;5042377;28;20224;-84
2022/11/09 04:50:16;;;;;;;39.05;24.70;;;9.30;99.90;;;;;;5043826;28;20748;-85
2022/11/09 04:53:11;;;;;;;41.38;24.48;;;9.20;99.90;;;;;;5043709;28;20605;-84
2022/11/09 04:56:00;;;;;;;38.70;23.83;;;9.20;99.90;;;;;;5043213;28;20360;-84
2022/11/09 04:58:49;;;;;;;37.88;24.17;;;9.20;99.90;;;;;;5048175;28;20394;-85
2022/11/09 05:01:37;;;;;;;38.25;24.38;;;9.20;99.90;;;;;;5039520;28;20229;-85
2022/11/09 05:04:26;;;;;;;36.90;23.58;;;9.20;99.90;;;;;;5040869;28;20235;-85
2022/11/09 05:07:14;;;;;;;36.63;24.25;;;9.20;99.90;;;;;;5054510;28;20647;-84
2022/11/09 05:10:08;;;;;;;41.10;23.27;;;9.30;99.90;;;;;;5065184;28;20232;-85
2022/11/09 05:12:58;;;;;;;38.90;23.02;;;9.30;99.90;;;;;;5047081;28;20307;-83
2022/11/09 05:15:47;;;;;;;41.70;25.25;;;9.30;99.90;;;;;;5064584;28;20319;-83
2022/11/09 05:18:35;;;;;;;38.45;24.88;;;9.30;99.90;;;;;;5063111;28;20636;-83
2022/11/09 05:21:24;;;;;;;39.17;23.35;;;9.30;99.90;;;;;;5064255;28;20224;-83
2022/11/09 05:24:11;;;;;;;40.03;24.17;;;9.30;99.90;;;;;;5048056;28;20231;-82
2022/11/09 05:27:03;;;;;;;38.75;25.00;;;9.20;99.90;;;;;;5060253;28;20298;-82
2022/11/09 05:29:52;;;;;;;38.80;23.83;;;9.10;99.90;;;;;;5060858;28;20216;-82
2022/11/09 05:32:41;;;;;;;41.47;24.33;;;9.30;99.90;;;;;;5063256;28;20228;-83
2022/11/09 05:35:29;;;;;;;40.40;24.42;;;9.20;99.90;;;;;;5046780;28;20599;-82
2022/11/09 05:38:18;;;;;;;39.38;24.38;;;9.20;99.90;;;;;;5065072;28;20224;-82
2022/11/09 05:41:06;;;;;;;37.95;23.67;;;9.20;99.90;;;;;;5032540;28;20307;-83
2022/11/09 05:43:56;;;;;;;40.53;25.38;;;9.10;99.90;;;;;;5058858;28;20246;-80
2022/11/09 05:46:45;;;;;;;37.58;24.08;;;9.20;99.90;;;;;;5066965;28;20235;-81
2022/11/09 05:49:33;;;;;;;39.95;24.17;;;9.20;99.90;;;;;;5063251;28;20325;-81
2022/11/09 05:52:22;;;;;;;42.10;25.17;;;9.20;99.90;;;;;;5062760;28;20232;-82
2022/11/09 05:55:10;;;;;;;39.50;23.73;;;9.20;99.90;;;;;;5043788;28;20228;-81
2022/11/09 05:57:59;;;;;;;40.90;23.98;;;9.10;99.90;;;;;;5059856;28;20318;-79
2022/11/09 06:00:49;;;;;;;40.00;25.00;;;9.10;99.90;;;;;;5063267;28;20262;-81
2022/11/09 06:03:39;;;;;;;40.67;24.38;;;9.10;99.90;;;;;;5044738;28;20220;-82
2022/11/09 06:06:28;;;;;;;42.00;24.48;;;9.10;99.90;;;;;;5046562;28;20374;-82
2022/11/09 06:09:17;;;;;;;42.28;25.38;;;9.10;99.90;;;;;;5060811;28;20228;-81
2022/11/09 06:12:06;;;;;;;42.58;25.85;;;9.10;99.90;;;;;;5063766;28;20228;-82
2022/11/09 06:14:55;;;;;;;42.00;25.65;;;9.10;99.90;;;;;;5059380;28;20246;-81
2022/11/09 06:17:50;;;;;;;39.83;24.70;;;9.10;99.90;;;;;;5059856;28;20235;-80
2022/11/09 06:20:39;;;;;;;42.35;26.20;;;9.00;99.90;;;;;;5048870;28;20227;-82
2022/11/09 06:23:29;;;;;;;43.00;25.90;;;9.10;99.90;;;;;;5058288;28;20231;-82
2022/11/09 06:26:17;;;;;;;41.28;24.55;;;9.10;99.90;;;;;;5056935;28;20228;-83
2022/11/09 06:29:06;;;;;;;43.33;26.65;;;9.20;99.90;;;;;;5060812;28;20308;-83
2022/11/09 06:31:55;;;;;;;42.83;26.25;;;9.20;99.90;;;;;;5052115;28;20252;-83
2022/11/09 06:34:47;;;;;;;43.92;25.73;;;9.10;99.90;;;;;;5061575;28;20224;-82
2022/11/09 06:37:35;;;;;;;46.33;25.77;;;9.20;99.90;;;;;;5061604;28;20220;-88
2022/11/09 06:40:24;;;;;;;40.30;25.80;;;9.30;99.90;;;;;;5052500;28;20215;-85
2022/11/09 06:43:13;;;;;;;43.17;25.55;;;9.30;99.90;;;;;;5061306;28;20706;-82
2022/11/09 06:46:03;;;;;;;42.10;25.33;;;9.30;99.90;;;;;;5061644;28;20361;-83
2022/11/09 06:48:52;;;;;;;47.13;26.42;;;9.30;99.90;;;;;;5048559;28;20224;-83
2022/11/09 06:51:43;;;;;;;42.45;26.50;;;9.30;99.90;;;;;;5063504;28;20711;-87
2022/11/09 06:54:33;;;;;;;44.33;26.23;;;9.50;99.90;;;;;;5070309;28;20223;-83
2022/11/09 06:57:46;;;;;;;43.50;25.88;;;9.50;99.90;;;;;;5047652;28;20615;-83
2022/11/09 07:00:35;;;;;;;42.65;26.08;;;9.40;99.90;;;;;;5045858;28;20366;-82
2022/11/09 07:03:25;;;;;;;44.72;25.90;;;9.50;99.90;;;;;;5060218;28;20220;-82
2022/11/09 07:06:14;;;;;;;42.20;25.90;;;9.50;99.90;;;;;;5056602;28;20838;-85
2022/11/09 07:09:04;;;;;;;40.83;25.48;;;9.50;99.90;;;;;;5043699;28;20231;-88
2022/11/09 07:11:52;;;;;;;46.13;27.83;;;9.60;99.90;;;;;;5048140;28;20224;-84
2022/11/09 07:14:42;;;;;;;46.10;27.17;;;9.60;99.90;;;;;;5044984;28;20220;-89
2022/11/09 07:17:31;;;;;;;41.38;26.33;;;9.60;99.90;;;;;;5059834;28;20220;-88
2022/11/09 07:20:20;;;;;;;43.60;27.38;;;9.60;99.90;;;;;;5062228;28;20208;-79
2022/11/09 07:23:08;;;;;;;43.30;25.92;;;9.70;99.90;;;;;;5043194;28;20695;-83
2022/11/09 07:25:59;;;;;;;43.58;25.80;;;9.80;99.90;;;;;;5044031;28;20259;-83
2022/11/09 07:28:48;;;;;;;44.97;26.38;;;9.90;99.90;;;;;;5063459;28;20223;-82
2022/11/09 07:31:37;;;;;;;43.92;26.38;;;10.00;99.90;;;;;;5063625;28;20216;-82
2022/11/09 07:34:25;;;;;;;43.80;25.75;;;9.90;99.90;;;;;;5049647;28;20216;-81
2022/11/09 07:37:14;;;;;;;41.70;26.65;;;10.00;99.90;;;;;;5059971;28;20231;-81
2022/11/09 07:40:02;;;;;;;48.85;28.00;;;10.10;99.90;;;;;;5056480;28;20224;-81
2022/11/09 07:42:58;;;;;;;43.70;25.88;;;10.10;99.90;;;;;;5042910;28;20228;-82
2022/11/09 07:45:46;;;;;;;41.38;26.60;;;10.10;99.90;;;;;;5045895;28;20223;-80
2022/11/09 07:48:35;;;;;;;46.35;27.75;;;10.20;99.90;;;;;;5056296;28;20325;-82
2022/11/09 07:51:24;;;;;;;41.03;26.67;;;10.30;99.90;;;;;;5055977;28;21056;-78
2022/11/09 07:54:12;;;;;;;47.00;27.80;;;10.30;99.90;;;;;;5056705;28;20223;-83
2022/11/09 07:57:01;;;;;;;45.58;27.42;;;10.30;99.90;;;;;;5055664;28;20232;-80
2022/11/09 07:59:52;;;;;;;40.28;26.05;;;10.40;99.90;;;;;;5049317;28;20702;-81
2022/11/09 08:02:41;;;;;;;40.13;25.50;;;10.40;99.90;;;;;;5054216;28;20223;-82
2022/11/09 08:05:29;;;;;;;43.35;26.55;;;10.40;99.90;;;;;;5041096;28;20212;-80
2022/11/09 08:08:18;;;;;;;42.70;26.05;;;10.40;99.90;;;;;;5058426;28;20586;-83
2022/11/09 08:11:07;;;;;;;42.28;26.35;;;10.50;99.90;;;;;;5062848;28;20311;-84
2022/11/09 08:13:55;;;;;;;42.65;26.30;;;10.50;99.90;;;;;;5044415;28;20216;-83
2022/11/09 08:16:45;;;;;;;43.95;26.42;;;10.50;99.90;;;;;;5047238;28;20224;-80
2022/11/09 08:19:34;;;;;;;44.53;26.98;;;10.50;99.90;;;;;;5061025;28;21034;-79
2022/11/09 08:22:22;;;;;;;44.20;26.90;;;10.60;99.90;;;;;;5048586;28;20231;-79
2022/11/09 08:25:12;;;;;;;43.60;26.30;;;10.60;99.90;;;;;;5061859;28;21030;-81
2022/11/09 08:28:02;;;;;;;44.70;25.58;;;10.80;99.90;;;;;;5058613;28;20223;-82
2022/11/09 08:30:56;;;;;;;45.75;26.30;;;10.80;99.90;;;;;;5045680;28;20235;-80
2022/11/09 08:33:46;;;;;;;43.85;26.52;;;10.80;99.90;;;;;;5053623;28;20814;-83
2022/11/09 08:36:35;;;;;;;42.75;27.00;;;10.80;99.90;;;;;;5050722;28;20235;-86
2022/11/09 08:39:23;;;;;;;42.35;26.55;;;10.90;99.90;;;;;;5052574;28;20224;-96
2022/11/09 08:42:12;;;;;;;44.10;25.98;;;10.80;99.90;;;;;;5054606;28;20228;-90
2022/11/09 08:45:01;;;;;;;43.15;26.65;;;10.90;99.90;;;;;;5069119;28;20224;-82
2022/11/09 08:47:56;;;;;;;41.28;26.15;;;10.90;99.90;;;;;;5058131;28;20224;-81
2022/11/09 08:50:51;;;;;;;43.80;26.90;;;10.90;99.90;;;;;;5064844;28;20232;-81
2022/11/09 08:53:39;;;;;;;43.13;26.33;;;10.90;99.90;;;;;;5045000;28;20243;-84
2022/11/09 08:56:28;;;;;;;42.75;26.38;;;11.10;99.90;;;;;;5048835;28;20227;-83
2022/11/09 08:59:17;;;;;;;43.10;26.00;;;11.10;99.90;;;;;;5047183;28;20212;-85
2022/11/09 09:02:06;;;;;;;44.95;27.05;;;11.30;99.90;;;;;;5066445;28;20220;-84
2022/11/09 09:04:55;;;;;;;41.97;26.10;;;11.40;99.90;;;;;;5053786;28;20240;-83
2022/11/09 09:07:45;;;;;;;45.95;26.65;;;11.50;99.90;;;;;;5058215;28;20685;-73
2022/11/09 09:10:39;;;;;;;45.67;27.33;;;11.50;99.90;;;;;;5043920;28;20733;-90
2022/11/09 09:13:27;;;;;;;42.63;27.08;;;11.40;99.90;;;;;;5071918;28;20257;-93
2022/11/09 09:16:16;;;;;;;40.72;26.00;;;11.50;99.90;;;;;;5058291;28;20243;-88
2022/11/09 09:19:05;;;;;;;40.97;26.65;;;11.50;99.90;;;;;;5072711;28;20258;-91
2022/11/09 09:21:54;;;;;;;41.83;26.70;;;11.50;99.90;;;;;;5063848;28;20800;-94
2022/11/09 09:24:44;;;;;;;45.25;26.48;;;11.60;99.90;;;;;;5055431;28;20258;-86
2022/11/09 09:27:32;;;;;;;39.97;25.52;;;11.70;99.90;;;;;;5051816;28;20225;-85
2022/11/09 09:30:21;;;;;;;43.13;26.23;;;11.80;99.90;;;;;;5067000;28;20223;-84
2022/11/09 09:33:10;;;;;;;45.17;28.35;;;11.90;99.90;;;;;;5050688;28;20216;-87
2022/11/09 09:35:59;;;;;;;43.63;25.95;;;12.00;99.90;;;;;;5058980;28;20221;-85
2022/11/09 09:38:50;;;;;;;45.03;27.05;;;12.10;99.90;;;;;;5058026;28;20366;-84
2022/11/09 09:41:46;;;;;;;42.88;27.10;;;12.10;99.90;;;;;;5044251;28;20227;-81
2022/11/09 09:44:41;;;;;;;42.00;27.65;;;12.10;99.90;;;;;;5044225;28;20217;-79
2022/11/09 09:47:49;;;;;;;41.15;26.60;;;12.20;99.90;;;;;;5045019;28;20220;-78
2022/11/09 09:50:45;;;;;;;44.38;26.92;;;12.20;99.90;;;;;;5062220;28;20239;-81
2022/11/09 09:53:41;;;;;;;41.53;25.42;;;12.20;99.90;;;;;;5056925;28;20224;-81
2022/11/09 09:56:34;;;;;;;40.53;25.10;;;12.20;99.90;;;;;;5058585;28;20220;-82
2022/11/09 09:59:28;;;;;;;41.45;26.42;;;12.30;99.90;;;;;;5044312;28;20230;-87
2022/11/09 10:02:23;;;;;;;36.65;25.05;;;12.40;99.90;;;;;;5064542;28;20227;-89
2022/11/09 10:05:16;;;;;;;44.88;26.05;;;12.50;99.90;;;;;;5063695;28;20231;-90
2022/11/09 10:08:14;;;;;;;41.20;26.63;;;12.40;99.90;;;;;;5052917;28;20228;-90
2022/11/09 10:11:16;;;;;;;40.60;25.30;;;12.50;99.90;;;;;;5047202;28;20220;-85
2022/11/09 10:14:25;;;;;;;41.78;25.77;;;12.40;99.90;;;;;;5044510;28;20223;-88
2022/11/09 10:17:25;;;;;;;40.60;25.17;;;12.40;99.90;;;;;;5031223;28;20228;-87
2022/11/09 10:20:28;;;;;;;41.55;25.25;;;12.50;99.90;;;;;;5045931;28;20224;-90
2022/11/09 10:23:36;;;;;;;38.70;26.27;;;12.60;99.90;;;;;;5043095;28;20227;-84
2022/11/09 10:26:34;;;;;;;38.42;24.95;;;12.50;99.90;;;;;;5025093;28;20522;-82
2022/11/09 10:29:24;;;;;;;42.08;25.83;;;12.50;99.90;;;;;;5035216;28;20225;-80
2022/11/09 10:32:17;;;;;;;39.70;25.55;;;12.60;99.90;;;;;;5037926;28;20232;-84
2022/11/09 10:35:17;;;;;;;46.40;26.38;;;12.60;99.90;;;;;;5034955;28;20703;-87
2022/11/09 10:38:12;;;;;;;40.20;25.45;;;12.60;99.90;;;;;;5048686;28;20231;-88
2022/11/09 10:41:06;;;;;;;42.03;25.88;;;12.60;99.90;;;;;;5041093;28;20301;-89
2022/11/09 10:44:15;;;;;;;40.42;25.75;;;12.60;99.90;;;;;;5043861;28;20695;-88
2022/11/09 10:47:25;;;;;;;38.30;24.52;;;12.70;99.90;;;;;;5040375;28;20220;-88
2022/11/09 10:50:35;;;;;;;40.50;26.00;;;12.80;99.90;;;;;;5043419;28;20236;-86
2022/11/09 10:53:42;;;;;;;40.83;26.13;;;12.90;99.90;;;;;;5045886;28;20221;-85
2022/11/09 10:56:52;;;;;;;41.92;26.67;;;12.80;99.90;;;;;;5039908;28;20220;-85
2022/11/09 11:00:16;;;;;;;38.63;25.38;;;12.80;99.90;;;;;;5043010;28;20236;-80
2022/11/09 11:03:25;;;;;;;37.88;25.00;;;12.80;99.90;;;;;;5039530;28;20236;-80
2022/11/09 11:06:32;;;;;;;39.92;24.80;;;12.90;99.90;;;;;;5042434;28;20277;-81
2022/11/09 11:09:39;;;;;;;40.20;25.08;;;12.90;99.90;;;;;;5060699;28;20231;-82
2022/11/09 11:12:57;;;;;;;42.20;25.13;;;13.00;99.90;;;;;;5053406;28;20327;-80
2022/11/09 11:16:14;;;;;;;40.10;25.33;;;13.00;99.90;;;;;;5058562;28;20247;-81
2022/11/09 11:19:33;;;;;;;36.90;24.33;;;13.00;99.90;;;;;;5057995;28;20244;-81
2022/11/09 11:22:40;;;;;;;39.25;24.88;;;13.10;99.90;;;;;;5057315;28;20281;-82
2022/11/09 11:26:06;;;;;;;41.58;24.50;;;13.20;99.90;;;;;;5061103;28;20212;-87
2022/11/09 11:29:28;;;;;;;37.25;25.02;;;13.20;99.90;;;;;;5061319;28;20262;-87
2022/11/09 11:32:35;;;;;;;35.83;25.15;;;13.20;99.90;;;;;;5064393;28;20224;-83
2022/11/09 11:35:49;;;;;;;41.78;23.65;;;13.20;99.90;;;;;;5070348;28;20224;-87
2022/11/09 11:39:06;;;;;;;37.78;23.75;;;13.30;99.90;;;;;;5060817;28;20250;-86
2022/11/09 11:42:31;;;;;;;39.88;24.77;;;13.30;99.90;;;;;;5060400;28;20311;-86
2022/11/09 11:45:42;;;;;;;34.78;23.95;;;13.20;99.90;;;;;;5056581;28;20675;-81
2022/11/09 11:49:22;;;;;;;38.35;25.15;;;13.30;99.90;;;;;;5057572;28;20959;-84
2022/11/09 11:52:40;;;;;;;35.08;24.00;;;13.30;99.90;;;;;;5055030;28;20309;-85
2022/11/09 11:56:14;;;;;;;39.17;23.27;;;13.30;99.90;;;;;;5052964;28;20219;-83
2022/11/09 11:59:43;;;;;;;35.65;23.45;;;13.30;99.90;;;;;;5055199;28;20224;-85
2022/11/09 12:03:34;;;;;;;36.25;24.02;;;13.40;99.90;;;;;;5057896;28;20228;-83
2022/11/09 12:06:58;;;;;;;39.60;22.30;;;13.50;99.90;;;;;;5056389;28;20259;-85
2022/11/09 12:10:23;;;;;;;31.55;22.77;;;13.50;99.90;;;;;;5055848;28;21003;-82
2022/11/09 12:13:55;;;;;;;34.95;23.33;;;13.50;99.90;;;;;;5029623;28;20244;-79
2022/11/09 12:17:09;;;;;;;42.10;23.77;;;13.50;99.90;;;;;;5050461;28;20315;-77
2022/11/09 12:20:24;;;;;;;38.65;22.58;;;13.50;99.90;;;;;;5053057;28;20245;-77
2022/11/09 12:23:44;;;;;;;38.17;22.38;;;13.50;99.90;;;;;;5057341;28;20220;-76
2022/11/09 12:27:14;;;;;;;34.17;22.55;;;13.60;99.90;;;;;;5058543;28;20335;-78
2022/11/09 12:30:51;;;;;;;32.13;22.45;;;13.70;99.90;;;;;;5059270;28;20288;-78
2022/11/09 12:34:02;;;;;;;34.28;21.80;;;13.70;99.90;;;;;;5057074;28;20713;-74
2022/11/09 12:37:13;;;;;;;36.05;22.60;;;13.70;99.90;;;;;;5056049;28;20228;-79
2022/11/09 12:40:25;;;;;;;36.13;22.33;;;13.70;99.90;;;;;;5038738;28;20228;-77
2022/11/09 12:43:52;;;;;;;37.38;22.92;;;13.70;99.90;;;;;;5056070;28;20228;-78
2022/11/09 12:47:02;;;;;;;32.90;22.92;;;13.70;99.90;;;;;;5059614;28;20262;-79
2022/11/09 12:50:14;;;;;;;33.67;22.58;;;13.70;99.90;;;;;;5052362;28;20871;-79
2022/11/09 12:53:25;;;;;;;36.55;22.75;;;13.70;99.90;;;;;;5050714;28;20316;-78
2022/11/09 12:56:40;;;;;;;36.17;22.20;;;13.70;99.90;;;;;;5056281;28;20220;-76
2022/11/09 12:59:52;;;;;;;36.22;21.42;;;13.70;99.90;;;;;;5048541;28;20225;-81
2022/11/09 13:03:01;;;;;;;35.83;22.08;;;13.70;99.90;;;;;;5056598;28;20731;-78
2022/11/09 13:06:16;;;;;;;32.97;21.38;;;13.70;99.90;;;;;;5057464;28;20231;-79
2022/11/09 13:09:25;;;;;;;31.42;21.65;;;13.70;99.90;;;;;;5051998;28;20571;-77
2022/11/09 13:13:01;;;;;;;34.83;21.45;;;13.60;99.90;;;;;;5047211;28;20234;-77
2022/11/09 13:16:32;;;;;;;35.50;22.85;;;13.60;99.90;;;;;;5064545;28;20718;-82
2022/11/09 13:19:54;;;;;;;32.03;21.80;;;13.60;99.90;;;;;;5062695;28;20231;-81
2022/11/09 13:23:03;;;;;;;36.80;21.63;;;13.60;99.90;;;;;;5064725;28;20259;-75
2022/11/09 13:26:23;;;;;;;32.95;21.75;;;13.70;99.90;;;;;;5065080;28;20229;-77
2022/11/09 13:29:47;;;;;;;36.03;22.83;;;13.70;99.90;;;;;;5053950;28;20216;-77
2022/11/09 13:33:20;;;;;;;35.78;21.92;;;13.60;99.90;;;;;;5062777;28;20228;-80
2022/11/09 13:36:28;;;;;;;34.92;22.90;;;13.60;99.90;;;;;;5059551;28;20808;-78
2022/11/09 13:39:38;;;;;;;38.00;22.80;;;13.60;99.90;;;;;;5059270;28;20223;-78
2022/11/09 13:42:57;;;;;;;32.75;21.63;;;13.60;99.90;;;;;;5055691;28;20774;-81
2022/11/09 13:46:21;;;;;;;30.75;21.20;;;13.50;99.90;;;;;;5065645;28;20223;-85
2022/11/09 13:49:54;;;;;;;38.92;22.15;;;13.60;99.90;;;;;;5065208;28;20224;-82
2022/11/09 13:53:02;;;;;;;36.63;21.42;;;13.60;99.90;;;;;;5059807;28;20276;-83
2022/11/09 13:56:16;;;;;;;35.63;23.27;;;13.50;99.90;;;;;;5060805;28;20223;-79
2022/11/09 13:59:28;;;;;;;35.88;22.27;;;13.50;99.90;;;;;;5038867;28;20315;-75
2022/11/09 14:02:35;;;;;;;35.67;22.48;;;13.50;99.90;;;;;;5059498;28;20220;-78
2022/11/09 14:05:45;;;;;;;32.53;22.67;;;13.50;99.90;;;;;;5058303;28;20244;-76
2022/11/09 14:08:52;;;;;;;32.58;22.23;;;13.50;99.90;;;;;;5063247;28;20891;-76
2022/11/09 14:12:23;;;;;;;35.72;22.35;;;13.50;99.90;;;;;;5060665;28;20227;-80
2022/11/09 14:15:42;;;;;;;33.58;22.30;;;13.50;99.90;;;;;;5060059;28;20208;-81
2022/11/09 14:19:02;;;;;;;36.08;22.85;;;13.50;99.90;;;;;;5059425;28;20216;-80
2022/11/09 14:22:16;;;;;;;32.08;22.23;;;13.50;99.90;;;;;;5053654;28;20726;-80
2022/11/09 14:25:24;;;;;;;37.67;23.83;;;13.50;99.90;;;;;;5059350;28;20227;-78
2022/11/09 14:28:33;;;;;;;34.25;21.98;;;13.50;99.90;;;;;;5055726;28;21083;-79
2022/11/09 14:31:44;;;;;;;38.97;22.85;;;13.50;99.90;;;;;;5062132;28;20726;-78
2022/11/09 14:34:51;;;;;;;40.88;23.38;;;13.50;99.90;;;;;;5058426;28;20634;-79
2022/11/09 14:38:09;;;;;;;32.35;21.73;;;13.40;99.90;;;;;;5059341;28;20235;-79
2022/11/09 14:41:21;;;;;;;34.80;22.58;;;13.40;99.90;;;;;;5055626;28;20238;-77
2022/11/09 14:44:31;;;;;;;36.42;23.08;;;13.40;99.90;;;;;;5037514;28;20221;-79
2022/11/09 14:47:38;;;;;;;34.08;22.95;;;13.40;99.90;;;;;;5055734;28;20220;-79
2022/11/09 14:50:47;;;;;;;37.45;23.05;;;13.40;99.90;;;;;;5057447;28;20281;-79
2022/11/09 14:53:57;;;;;;;40.53;23.63;;;13.40;99.90;;;;;;5057918;28;20220;-79
2022/11/09 14:57:04;;;;;;;36.72;23.02;;;13.40;99.90;;;;;;5059752;28;20599;-80
2022/11/09 15:00:33;;;;;;;32.90;22.20;;;13.30;99.90;;;;;;5062963;28;20216;-78
2022/11/09 15:03:40;;;;;;;40.80;23.58;;;13.30;99.90;;;;;;5060541;28;20227;-78